Time;durP1;ratioP1;P1;durP2;ratioP2;P2;SDS_P1;SDS_P2;PMS_P1;PMS_P2;Temp;Humidity;BMP_temperature;BMP_pressure;BME280_temperature;BME280_humidity;BME280_pressure;Samples;Min_cycle;Max_cycle;Signal;HPM_P1;HPM_P2
2024/02/28 00:00:48;;;;;;;37.77;18.73;;;4.80;93.20;;;;;;5019228;28;20036;-83
2024/02/28 00:03:14;;;;;;;36.13;18.60;;;4.70;93.10;;;;;;5020665;28;20022;-83
2024/02/28 00:05:39;;;;;;;42.63;18.90;;;4.70;93.20;;;;;;5019646;28;20145;-82
2024/02/28 00:08:05;;;;;;;48.50;18.33;;;4.70;93.30;;;;;;5019522;28;20025;-83
2024/02/28 00:10:32;;;;;;;42.83;18.97;;;4.60;93.20;;;;;;5020509;28;20056;-82
2024/02/28 00:12:59;;;;;;;49.50;18.30;;;4.60;93.30;;;;;;5018194;28;20061;-82
2024/02/28 00:15:25;;;;;;;40.63;18.10;;;4.60;93.20;;;;;;5020063;28;20116;-82
2024/02/28 00:17:54;;;;;;;46.40;17.20;;;4.60;93.20;;;;;;5018561;28;20463;-83
2024/02/28 00:20:20;;;;;;;51.40;18.90;;;4.60;93.20;;;;;;5019320;28;20106;-83
2024/02/28 00:22:45;;;;;;;34.93;17.90;;;4.50;93.30;;;;;;5019032;28;20131;-83
2024/02/28 00:25:12;;;;;;;40.17;18.60;;;4.50;93.40;;;;;;5018756;28;20026;-83
2024/02/28 00:27:38;;;;;;;41.20;18.00;;;4.50;93.60;;;;;;5019817;28;20064;-83
2024/02/28 00:30:06;;;;;;;38.53;18.57;;;4.50;93.70;;;;;;5019920;28;20025;-81
2024/02/28 00:32:32;;;;;;;38.20;18.50;;;4.60;93.90;;;;;;5019283;28;20111;-83
2024/02/28 00:34:58;;;;;;;41.07;19.47;;;4.50;94.10;;;;;;5018147;28;20037;-83
2024/02/28 00:37:23;;;;;;;43.50;20.07;;;4.60;94.20;;;;;;5019563;28;20034;-84
2024/02/28 00:39:49;;;;;;;38.07;17.17;;;4.60;94.30;;;;;;5020129;28;20538;-82
2024/02/28 00:42:15;;;;;;;41.43;18.83;;;4.50;94.10;;;;;;5018678;28;20014;-83
2024/02/28 00:44:42;;;;;;;31.83;16.70;;;4.50;94.10;;;;;;5019911;28;20018;-83
2024/02/28 00:47:11;;;;;;;35.83;18.30;;;4.50;94.00;;;;;;5018001;28;20046;-83
2024/02/28 00:49:37;;;;;;;40.23;17.27;;;4.50;94.40;;;;;;5020513;28;20400;-83
2024/02/28 00:52:03;;;;;;;41.13;17.90;;;4.50;94.40;;;;;;5022233;28;20053;-83
2024/02/28 00:54:29;;;;;;;35.03;17.17;;;4.50;94.40;;;;;;5023158;28;20329;-83
2024/02/28 00:56:54;;;;;;;36.60;17.40;;;4.50;94.30;;;;;;5022538;28;20041;-83
2024/02/28 00:59:20;;;;;;;38.57;16.40;;;4.50;94.30;;;;;;5022725;28;20018;-84
2024/02/28 01:01:47;;;;;;;37.10;16.23;;;4.40;94.30;;;;;;5023290;28;20049;-83
2024/02/28 01:04:13;;;;;;;35.53;17.37;;;4.40;94.40;;;;;;5021408;28;20022;-84
2024/02/28 01:06:39;;;;;;;39.87;17.77;;;4.40;94.40;;;;;;5023406;28;20037;-82
2024/02/28 01:09:04;;;;;;;36.17;16.10;;;4.30;94.50;;;;;;5021840;28;20030;-82
2024/02/28 01:11:30;;;;;;;35.60;17.47;;;4.30;94.70;;;;;;5023075;28;20446;-82
2024/02/28 01:13:56;;;;;;;38.47;17.43;;;4.40;94.90;;;;;;5022028;28;20034;-82
2024/02/28 01:16:21;;;;;;;37.17;18.07;;;4.30;95.00;;;;;;5022533;28;20037;-83
2024/02/28 01:18:47;;;;;;;35.93;18.00;;;4.30;95.00;;;;;;5022533;28;20022;-83
2024/02/28 01:21:13;;;;;;;37.67;18.60;;;4.40;95.30;;;;;;5022043;28;20029;-83
2024/02/28 01:23:38;;;;;;;36.90;17.50;;;4.40;95.10;;;;;;5023440;28;20053;-82
2024/02/28 01:26:05;;;;;;;34.47;18.90;;;4.40;95.40;;;;;;5021095;28;20026;-83
2024/02/28 01:28:31;;;;;;;38.90;17.63;;;4.40;95.40;;;;;;5024317;28;20085;-83
2024/02/28 01:30:58;;;;;;;34.83;16.23;;;4.40;95.40;;;;;;5021370;28;20014;-82
2024/02/28 01:33:23;;;;;;;42.50;18.73;;;4.40;95.50;;;;;;5022736;28;20030;-82
2024/02/28 01:35:49;;;;;;;39.77;19.27;;;4.40;95.50;;;;;;5022443;28;20086;-82
2024/02/28 01:38:15;;;;;;;41.57;19.90;;;4.40;95.50;;;;;;5021673;28;20030;-82
2024/02/28 01:40:45;;;;;;;46.90;19.37;;;4.30;95.60;;;;;;5022794;28;20117;-82
2024/02/28 01:43:12;;;;;;;55.07;19.63;;;4.30;95.60;;;;;;5021207;28;20041;-83
2024/02/28 01:45:37;;;;;;;49.03;18.77;;;4.20;95.40;;;;;;5022693;28;20099;-82
2024/02/28 01:48:05;;;;;;;59.47;19.47;;;4.30;95.60;;;;;;5021101;28;20022;-83
2024/02/28 01:50:32;;;;;;;75.50;19.13;;;4.30;95.80;;;;;;5021787;28;20030;-82
2024/02/28 01:52:58;;;;;;;55.83;18.27;;;4.20;95.80;;;;;;5021706;28;20088;-82
2024/02/28 01:55:24;;;;;;;56.57;17.27;;;4.20;95.90;;;;;;5021367;28;20069;-82
2024/02/28 01:57:51;;;;;;;54.73;17.90;;;4.20;95.90;;;;;;5022599;28;20025;-82
2024/02/28 02:00:18;;;;;;;53.67;17.93;;;4.20;96.00;;;;;;5020868;28;20026;-80
2024/02/28 02:02:44;;;;;;;50.63;17.87;;;4.10;96.10;;;;;;5020558;28;20017;-83
2024/02/28 02:05:10;;;;;;;75.77;18.47;;;4.10;96.30;;;;;;5032458;28;20029;-84
2024/02/28 02:07:36;;;;;;;75.40;18.30;;;4.20;96.60;;;;;;5021480;28;20486;-83
2024/02/28 02:10:02;;;;;;;50.30;18.17;;;4.10;96.40;;;;;;5021742;28;20053;-81
2024/02/28 02:12:27;;;;;;;72.50;19.07;;;4.10;96.40;;;;;;5020981;28;20062;-83
2024/02/28 02:14:53;;;;;;;61.50;18.67;;;4.10;96.60;;;;;;5022377;28;20017;-82
2024/02/28 02:17:19;;;;;;;50.03;17.67;;;4.10;96.60;;;;;;5020834;28;20049;-84
2024/02/28 02:19:45;;;;;;;64.87;19.30;;;4.00;96.70;;;;;;5023018;28;20053;-84
2024/02/28 02:22:13;;;;;;;47.70;18.03;;;4.00;96.80;;;;;;5021506;28;20014;-81
2024/02/28 02:24:39;;;;;;;70.63;17.30;;;4.00;96.90;;;;;;5023189;28;20026;-83
2024/02/28 02:27:05;;;;;;;53.73;17.60;;;4.10;96.90;;;;;;5023199;28;20140;-81
2024/02/28 02:29:31;;;;;;;58.20;18.43;;;4.00;97.10;;;;;;5039480;28;20390;-81
2024/02/28 02:31:56;;;;;;;61.83;17.13;;;4.10;97.10;;;;;;5023104;28;20026;-82
2024/02/28 02:34:22;;;;;;;45.90;18.50;;;4.00;97.00;;;;;;5037653;28;20048;-82
2024/02/28 02:36:48;;;;;;;50.77;17.73;;;4.00;97.10;;;;;;5022067;28;20029;-82
2024/02/28 02:39:14;;;;;;;56.73;17.43;;;4.00;97.20;;;;;;5020219;28;20029;-81
2024/02/28 02:41:40;;;;;;;64.97;17.40;;;3.90;97.20;;;;;;5021796;28;20580;-82
2024/02/28 02:44:07;;;;;;;36.40;16.87;;;3.90;97.30;;;;;;5022117;28;20038;-83
2024/02/28 02:46:33;;;;;;;54.60;18.00;;;3.90;97.30;;;;;;5020970;28;20030;-83
2024/02/28 02:48:58;;;;;;;49.70;18.53;;;3.90;97.40;;;;;;5021535;28;20025;-82
2024/02/28 02:51:25;;;;;;;49.60;16.13;;;3.90;97.50;;;;;;5021302;28;20032;-83
2024/02/28 02:53:51;;;;;;;56.43;16.67;;;3.90;97.70;;;;;;5021392;28;20033;-82
2024/02/28 02:56:17;;;;;;;62.33;16.73;;;3.90;97.90;;;;;;5019956;28;20029;-83
2024/02/28 02:58:43;;;;;;;42.83;16.97;;;3.80;97.80;;;;;;5021381;28;20022;-84
2024/02/28 03:01:08;;;;;;;50.27;16.70;;;3.90;97.80;;;;;;5019925;28;20471;-83
2024/02/28 03:03:34;;;;;;;46.90;17.67;;;3.80;97.80;;;;;;5020786;28;20026;-83
2024/02/28 03:06:00;;;;;;;45.33;16.10;;;3.90;98.00;;;;;;5029292;28;20050;-83
2024/02/28 03:08:26;;;;;;;41.03;15.17;;;3.80;98.30;;;;;;5036297;28;20043;-82
2024/02/28 03:10:51;;;;;;;42.33;17.40;;;3.80;98.10;;;;;;5040743;28;20133;-81
2024/02/28 03:13:18;;;;;;;54.27;16.63;;;3.90;98.10;;;;;;5038190;28;20048;-83
2024/02/28 03:15:44;;;;;;;46.07;16.53;;;3.80;98.10;;;;;;5040720;28;20021;-82
2024/02/28 03:18:10;;;;;;;46.67;16.00;;;3.80;98.20;;;;;;5039653;28;20023;-83
2024/02/28 03:20:38;;;;;;;51.00;17.07;;;3.80;98.10;;;;;;5039666;28;20021;-83
2024/02/28 03:23:05;;;;;;;43.60;16.20;;;3.80;98.10;;;;;;5039843;28;20017;-83
2024/02/28 03:25:32;;;;;;;43.13;16.07;;;3.80;98.50;;;;;;5039211;28;20013;-83
2024/02/28 03:27:59;;;;;;;45.27;16.93;;;3.80;98.40;;;;;;5040682;28;20045;-82
2024/02/28 03:30:25;;;;;;;40.97;17.13;;;3.70;98.60;;;;;;5038646;28;20029;-82
2024/02/28 03:32:51;;;;;;;41.33;16.30;;;3.80;98.70;;;;;;5041192;28;20061;-83
2024/02/28 03:35:17;;;;;;;36.77;15.57;;;3.80;98.80;;;;;;5038947;28;20025;-83
2024/02/28 03:37:42;;;;;;;47.00;14.93;;;3.80;98.80;;;;;;5039897;28;20508;-82
2024/02/28 03:40:08;;;;;;;38.30;17.37;;;3.90;98.90;;;;;;5039570;28;20095;-82
2024/02/28 03:42:34;;;;;;;35.43;17.70;;;3.90;98.80;;;;;;5039304;28;20028;-82
2024/02/28 03:45:00;;;;;;;40.43;17.53;;;3.90;99.10;;;;;;5039959;28;20017;-82
2024/02/28 03:47:26;;;;;;;37.27;18.17;;;3.90;99.10;;;;;;5038556;28;20531;-82
2024/02/28 03:49:51;;;;;;;37.97;17.10;;;3.90;99.10;;;;;;5040034;28;20036;-82
2024/02/28 03:52:17;;;;;;;39.40;16.10;;;3.90;99.00;;;;;;5038905;28;20026;-81
2024/02/28 03:54:44;;;;;;;44.50;18.60;;;3.90;99.00;;;;;;5039887;28;20092;-81
2024/02/28 03:57:10;;;;;;;38.53;17.70;;;3.80;99.10;;;;;;5039457;28;20021;-82
2024/02/28 03:59:36;;;;;;;35.77;16.83;;;3.80;98.90;;;;;;5038579;28;20021;-82
2024/02/28 04:02:02;;;;;;;42.17;17.83;;;3.80;99.10;;;;;;5039788;28;20048;-84
2024/02/28 04:04:27;;;;;;;39.53;17.97;;;3.80;99.10;;;;;;5038329;28;20017;-83
2024/02/28 04:06:53;;;;;;;36.17;17.53;;;3.80;99.20;;;;;;5039817;28;20474;-83
2024/02/28 04:09:20;;;;;;;31.43;16.37;;;3.80;99.00;;;;;;5038348;28;20022;-83
2024/02/28 04:11:46;;;;;;;39.10;16.47;;;3.80;99.00;;;;;;5039786;28;20079;-83
2024/02/28 04:14:11;;;;;;;48.17;16.27;;;3.70;99.00;;;;;;5038617;28;20041;-82
2024/02/28 04:16:44;;;;;;;36.83;14.97;;;3.70;99.10;;;;;;5040632;28;20033;-84
2024/02/28 04:19:10;;;;;;;30.57;15.77;;;3.70;99.30;;;;;;5039647;28;20018;-84
2024/02/28 04:21:37;;;;;;;30.17;15.60;;;3.70;99.40;;;;;;5038226;28;20082;-82
2024/02/28 04:24:03;;;;;;;29.80;16.80;;;3.70;99.50;;;;;;5039385;28;20017;-82
2024/02/28 04:26:29;;;;;;;30.63;15.93;;;3.70;99.70;;;;;;5038009;28;20022;-81
2024/02/28 04:28:56;;;;;;;35.17;15.10;;;3.80;99.70;;;;;;5039670;28;20030;-82
2024/02/28 04:31:22;;;;;;;32.57;17.07;;;3.70;99.40;;;;;;5037712;28;20033;-83
2024/02/28 04:33:47;;;;;;;30.93;15.23;;;3.80;99.70;;;;;;5038573;28;20041;-83
2024/02/28 04:36:14;;;;;;;35.53;14.87;;;3.70;99.90;;;;;;5039376;28;20065;-82
2024/02/28 04:38:40;;;;;;;33.40;16.30;;;3.80;99.90;;;;;;5038144;28;20029;-83
2024/02/28 04:41:06;;;;;;;33.80;16.67;;;3.80;99.90;;;;;;5039228;28;20021;-83
2024/02/28 04:43:31;;;;;;;32.50;17.63;;;3.70;99.80;;;;;;5037856;28;20492;-83
2024/02/28 04:45:57;;;;;;;30.40;16.67;;;3.70;99.90;;;;;;5039227;28;20017;-83
2024/02/28 04:48:23;;;;;;;32.07;17.30;;;3.70;99.90;;;;;;5038449;28;20220;-83
2024/02/28 04:50:48;;;;;;;31.33;15.73;;;3.70;99.70;;;;;;5039992;28;20026;-84
2024/02/28 04:53:14;;;;;;;31.07;15.17;;;3.60;99.80;;;;;;5038870;28;20105;-83
2024/02/28 04:55:40;;;;;;;33.63;16.30;;;3.70;99.80;;;;;;5037730;28;20021;-81
2024/02/28 04:58:05;;;;;;;29.73;15.73;;;3.60;99.70;;;;;;5039663;28;20022;-83
2024/02/28 05:00:32;;;;;;;27.60;15.00;;;3.60;99.60;;;;;;5037816;28;20111;-83
2024/02/28 05:02:57;;;;;;;29.83;17.17;;;3.60;99.80;;;;;;5039156;28;20028;-83
2024/02/28 05:05:23;;;;;;;31.07;17.77;;;3.60;99.90;;;;;;5039446;28;20013;-83
2024/02/28 05:07:49;;;;;;;30.90;17.03;;;3.60;99.90;;;;;;5042105;28;20489;-84
2024/02/28 05:10:14;;;;;;;32.07;17.27;;;3.60;99.90;;;;;;5042081;28;20017;-83
2024/02/28 05:12:40;;;;;;;29.63;17.10;;;3.60;99.90;;;;;;5041539;28;20029;-83
2024/02/28 05:15:06;;;;;;;32.33;16.60;;;3.50;99.90;;;;;;5060483;28;20025;-84
2024/02/28 05:17:32;;;;;;;31.87;17.53;;;3.50;99.90;;;;;;5041377;28;20021;-83
2024/02/28 05:19:58;;;;;;;27.27;15.43;;;3.50;99.90;;;;;;5042493;28;20901;-83
2024/02/28 05:22:24;;;;;;;28.83;16.23;;;3.50;99.90;;;;;;5041202;28;20017;-84
2024/02/28 05:24:49;;;;;;;28.27;15.10;;;3.50;99.90;;;;;;5041667;28;20025;-84
2024/02/28 05:27:15;;;;;;;26.33;15.03;;;3.50;99.90;;;;;;5041540;28;20024;-84
2024/02/28 05:29:42;;;;;;;29.60;16.83;;;3.50;99.90;;;;;;5041375;28;20053;-82
2024/02/28 05:32:08;;;;;;;26.47;14.67;;;3.40;99.90;;;;;;5042005;28;20071;-83
2024/02/28 05:34:34;;;;;;;30.37;16.10;;;3.50;99.90;;;;;;5040728;28;20039;-83
2024/02/28 05:37:00;;;;;;;29.63;16.47;;;3.40;99.90;;;;;;5043570;28;20048;-84
2024/02/28 05:39:29;;;;;;;30.43;16.60;;;3.40;99.90;;;;;;5044199;28;20029;-83
2024/02/28 05:41:55;;;;;;;29.77;16.23;;;3.50;99.90;;;;;;5045625;28;20171;-83
2024/02/28 05:44:20;;;;;;;33.10;17.60;;;3.40;99.90;;;;;;5044979;28;20526;-83
2024/02/28 05:46:46;;;;;;;26.87;14.83;;;3.40;99.90;;;;;;5044827;28;20567;-82
2024/02/28 05:49:11;;;;;;;27.67;15.43;;;3.40;99.90;;;;;;5045949;28;20017;-82
2024/02/28 05:51:37;;;;;;;28.20;14.77;;;3.40;99.90;;;;;;5062802;28;20025;-83
2024/02/28 05:54:03;;;;;;;25.77;15.00;;;3.40;99.90;;;;;;5046245;28;20120;-82
2024/02/28 05:56:30;;;;;;;27.20;15.53;;;3.30;99.90;;;;;;5045177;28;20021;-82
2024/02/28 05:58:55;;;;;;;25.47;14.43;;;3.30;99.90;;;;;;5046201;28;20017;-83
2024/02/28 06:01:21;;;;;;;27.60;15.67;;;3.30;99.90;;;;;;5045909;28;20013;-82
2024/02/28 06:03:48;;;;;;;25.83;14.70;;;3.30;99.90;;;;;;5046365;28;20013;-83
2024/02/28 06:06:14;;;;;;;23.80;14.07;;;3.30;99.90;;;;;;5064569;28;20114;-83
2024/02/28 06:08:40;;;;;;;23.83;14.17;;;3.30;99.90;;;;;;5044124;28;20053;-82
2024/02/28 06:11:06;;;;;;;27.70;15.00;;;3.30;99.90;;;;;;5046111;28;20024;-84
2024/02/28 06:13:32;;;;;;;28.30;15.37;;;3.40;99.90;;;;;;5043979;28;20029;-83
2024/02/28 06:15:58;;;;;;;24.93;14.20;;;3.30;99.90;;;;;;5045572;28;20079;-83
2024/02/28 06:18:28;;;;;;;26.37;14.93;;;3.30;99.90;;;;;;5054106;28;20455;-82
2024/02/28 06:20:55;;;;;;;28.63;15.43;;;3.30;99.90;;;;;;5031591;28;20026;-84
2024/02/28 06:23:22;;;;;;;27.20;16.03;;;3.30;99.90;;;;;;5044460;28;20044;-83
2024/02/28 06:25:48;;;;;;;27.87;16.30;;;3.30;99.90;;;;;;5043624;28;20047;-82
2024/02/28 06:28:14;;;;;;;29.93;16.53;;;3.20;99.90;;;;;;5044647;28;20009;-82
2024/02/28 06:30:40;;;;;;;30.50;16.17;;;3.20;99.90;;;;;;5043466;28;20377;-82
2024/02/28 06:33:06;;;;;;;27.50;16.57;;;3.20;99.90;;;;;;5044403;28;20044;-81
2024/02/28 06:35:31;;;;;;;27.50;15.90;;;3.20;99.90;;;;;;5043286;28;20029;-82
2024/02/28 06:37:57;;;;;;;31.00;15.57;;;3.20;99.90;;;;;;5043878;28;20025;-83
2024/02/28 06:40:23;;;;;;;28.37;15.67;;;3.10;99.90;;;;;;5044344;28;20078;-83
2024/02/28 06:42:49;;;;;;;27.33;15.93;;;3.10;99.90;;;;;;5043103;28;20032;-84
2024/02/28 06:45:14;;;;;;;27.20;15.20;;;3.10;99.90;;;;;;5044907;28;20025;-83
2024/02/28 06:47:40;;;;;;;27.00;16.03;;;3.20;99.90;;;;;;5042718;28;20033;-80
2024/02/28 06:50:06;;;;;;;27.53;16.80;;;3.20;99.90;;;;;;5044607;28;20044;-81
2024/02/28 06:52:34;;;;;;;32.53;17.83;;;3.20;99.90;;;;;;5042697;28;20031;-79
2024/02/28 06:55:03;;;;;;;27.47;15.13;;;3.20;99.90;;;;;;5043931;28;20029;-78
2024/02/28 06:57:29;;;;;;;27.87;15.53;;;3.20;99.90;;;;;;5043533;28;20485;-79
2024/02/28 06:59:54;;;;;;;29.37;16.50;;;3.30;99.90;;;;;;5043235;28;20025;-79
2024/02/28 07:02:20;;;;;;;29.40;17.07;;;3.30;99.90;;;;;;5043106;28;20021;-80
2024/02/28 07:04:46;;;;;;;25.40;15.23;;;3.40;99.90;;;;;;5042026;28;20024;-80
2024/02/28 07:07:11;;;;;;;25.17;14.57;;;3.40;99.90;;;;;;5043230;28;20172;-79
2024/02/28 07:09:38;;;;;;;28.07;15.87;;;3.40;99.90;;;;;;5038064;28;20577;-80
2024/02/28 07:12:04;;;;;;;27.30;16.43;;;3.40;99.90;;;;;;5040076;28;20089;-79
2024/02/28 07:14:29;;;;;;;24.97;14.67;;;3.50;99.90;;;;;;5040169;28;20083;-79
2024/02/28 07:16:55;;;;;;;29.70;15.93;;;3.50;99.90;;;;;;5039305;28;20030;-79
2024/02/28 07:19:21;;;;;;;26.27;15.70;;;3.60;99.90;;;;;;5043489;28;20025;-79
2024/02/28 07:21:46;;;;;;;25.50;14.67;;;3.60;99.90;;;;;;5041530;28;20063;-79
2024/02/28 07:24:12;;;;;;;24.83;15.83;;;3.60;99.90;;;;;;5043036;28;20373;-79
2024/02/28 07:26:39;;;;;;;26.13;15.13;;;3.70;99.90;;;;;;5041880;28;20017;-79
2024/02/28 07:29:05;;;;;;;22.47;13.53;;;3.60;99.90;;;;;;5042873;28;20021;-78
2024/02/28 07:31:31;;;;;;;22.23;13.43;;;3.60;99.90;;;;;;5039642;28;20071;-79
2024/02/28 07:33:57;;;;;;;25.97;15.47;;;3.70;99.90;;;;;;5042637;28;20033;-79
2024/02/28 07:36:22;;;;;;;27.77;15.93;;;3.70;99.90;;;;;;5042982;28;20056;-79
2024/02/28 07:38:48;;;;;;;25.77;16.10;;;3.80;99.90;;;;;;5042200;28;20028;-79
2024/02/28 07:41:14;;;;;;;24.63;14.97;;;3.80;99.90;;;;;;5043783;28;20437;-79
2024/02/28 07:43:43;;;;;;;29.53;18.03;;;3.80;99.90;;;;;;5042179;28;20025;-80
2024/02/28 07:46:11;;;;;;;28.63;16.87;;;3.90;99.90;;;;;;5061165;28;20459;-80
2024/02/28 07:48:37;;;;;;;29.47;17.50;;;4.00;99.90;;;;;;5042977;28;20036;-81
2024/02/28 07:51:07;;;;;;;30.57;17.83;;;4.00;99.90;;;;;;5043022;28;20035;-79
2024/02/28 07:53:33;;;;;;;28.83;17.43;;;4.10;99.90;;;;;;5043224;28;20074;-79
2024/02/28 07:55:59;;;;;;;31.17;19.47;;;4.10;99.90;;;;;;5042145;28;20024;-78
2024/02/28 07:58:24;;;;;;;36.63;20.63;;;4.10;99.90;;;;;;5043366;28;20039;-79
2024/02/28 08:00:52;;;;;;;39.30;21.47;;;4.10;99.90;;;;;;5041058;28;20020;-79
2024/02/28 08:03:18;;;;;;;39.40;21.80;;;4.20;99.90;;;;;;5042975;28;20029;-79
2024/02/28 08:05:44;;;;;;;38.77;21.27;;;4.20;99.90;;;;;;5059890;28;20048;-79
2024/02/28 08:08:10;;;;;;;43.80;24.63;;;4.20;99.90;;;;;;5042467;28;20029;-78
2024/02/28 08:10:37;;;;;;;40.57;22.87;;;4.20;99.90;;;;;;5043011;28;20035;-78
2024/02/28 08:13:04;;;;;;;44.10;22.50;;;4.30;99.90;;;;;;5041485;28;20029;-79
2024/02/28 08:15:30;;;;;;;35.37;21.17;;;4.30;99.90;;;;;;5043359;28;20021;-79
2024/02/28 08:17:55;;;;;;;36.63;20.23;;;4.30;99.90;;;;;;5041753;28;20021;-79
2024/02/28 08:20:21;;;;;;;37.50;21.60;;;4.30;99.90;;;;;;5042907;28;20017;-80
2024/02/28 08:22:47;;;;;;;40.43;22.70;;;4.40;99.90;;;;;;5041966;28;20563;-79
2024/02/28 08:25:14;;;;;;;39.77;22.07;;;4.40;99.90;;;;;;5042286;28;20078;-79
2024/02/28 08:27:40;;;;;;;40.43;20.30;;;4.50;99.90;;;;;;5042663;28;20017;-80
2024/02/28 08:30:06;;;;;;;38.30;21.60;;;4.50;99.90;;;;;;5041717;28;20052;-80
2024/02/28 08:32:32;;;;;;;38.70;22.23;;;4.60;99.90;;;;;;5042433;28;20031;-81
2024/02/28 08:34:58;;;;;;;44.43;23.50;;;4.60;99.90;;;;;;5041139;28;20033;-82
2024/02/28 08:37:24;;;;;;;43.17;22.03;;;4.70;99.90;;;;;;5042643;28;20024;-82
2024/02/28 08:39:50;;;;;;;42.73;23.30;;;4.70;99.90;;;;;;5041830;28;20104;-82
2024/02/28 08:42:16;;;;;;;42.50;24.20;;;4.70;99.90;;;;;;5042491;28;20021;-82
2024/02/28 08:44:42;;;;;;;43.57;23.37;;;4.70;99.90;;;;;;5042442;28;20013;-81
2024/02/28 08:47:09;;;;;;;42.17;23.30;;;4.80;99.90;;;;;;5041562;28;20392;-81
2024/02/28 08:49:35;;;;;;;41.20;22.43;;;4.80;99.90;;;;;;5042363;28;20028;-80
2024/02/28 08:52:01;;;;;;;40.87;22.77;;;4.90;99.90;;;;;;5041274;28;20037;-80
2024/02/28 08:54:27;;;;;;;43.23;24.17;;;4.90;99.90;;;;;;5042971;28;20100;-81
2024/02/28 08:56:52;;;;;;;39.27;21.87;;;5.00;99.90;;;;;;5041619;28;20373;-79
2024/02/28 08:59:18;;;;;;;40.03;22.30;;;5.10;99.90;;;;;;5042308;28;20017;-80
2024/02/28 09:01:44;;;;;;;39.90;21.93;;;5.20;99.90;;;;;;5042144;28;20028;-80
2024/02/28 09:04:09;;;;;;;40.00;21.37;;;5.30;99.90;;;;;;5041475;28;20035;-80
2024/02/28 09:06:35;;;;;;;37.93;22.00;;;5.30;99.90;;;;;;5059212;28;20469;-79
2024/02/28 09:09:01;;;;;;;38.77;22.23;;;5.40;99.90;;;;;;5038936;28;20081;-79
2024/02/28 09:11:27;;;;;;;40.47;23.40;;;5.40;99.90;;;;;;5041126;28;20560;-80
2024/02/28 09:13:52;;;;;;;43.20;22.93;;;5.50;99.90;;;;;;5025127;28;20045;-80
2024/02/28 09:16:18;;;;;;;39.17;22.23;;;5.50;99.90;;;;;;5032206;28;20010;-80
2024/02/28 09:18:44;;;;;;;42.77;23.43;;;5.60;99.90;;;;;;5041649;28;20052;-80
2024/02/28 09:21:10;;;;;;;39.20;23.00;;;5.60;99.90;;;;;;5039275;28;20029;-80
2024/02/28 09:23:35;;;;;;;41.87;22.83;;;5.60;99.90;;;;;;5044017;28;20060;-80
2024/02/28 09:26:05;;;;;;;42.30;23.10;;;5.70;99.90;;;;;;5025896;28;20082;-80
2024/02/28 09:28:31;;;;;;;36.53;21.97;;;5.70;99.90;;;;;;5027584;28;20026;-81
2024/02/28 09:30:57;;;;;;;40.70;24.23;;;5.70;99.90;;;;;;5025391;28;20489;-81
2024/02/28 09:33:23;;;;;;;39.83;22.00;;;5.80;99.90;;;;;;5027130;28;20101;-81
2024/02/28 09:35:49;;;;;;;36.70;21.17;;;5.80;99.90;;;;;;5025256;28;20030;-80
2024/02/28 09:38:15;;;;;;;39.93;22.73;;;5.80;99.90;;;;;;5025324;28;20018;-81
2024/02/28 09:40:42;;;;;;;37.93;22.13;;;5.80;99.90;;;;;;5025955;28;20027;-80
2024/02/28 09:43:15;;;;;;;34.47;21.33;;;5.70;99.90;;;;;;5024679;28;20041;-81
2024/02/28 09:45:41;;;;;;;37.47;21.97;;;5.70;99.90;;;;;;5025835;28;20026;-81
2024/02/28 09:48:08;;;;;;;42.93;23.47;;;5.80;99.90;;;;;;5042345;28;20039;-80
2024/02/28 09:50:34;;;;;;;38.07;23.77;;;5.90;99.90;;;;;;5045379;28;20074;-80
2024/02/28 09:52:59;;;;;;;41.97;23.83;;;5.80;99.90;;;;;;5044708;28;20061;-81
2024/02/28 09:55:25;;;;;;;44.10;25.50;;;5.80;99.90;;;;;;5044549;28;20025;-81
2024/02/28 09:57:52;;;;;;;39.70;22.03;;;5.80;99.90;;;;;;5045602;28;20052;-80
2024/02/28 10:00:20;;;;;;;38.97;23.63;;;5.90;99.90;;;;;;5042890;28;20041;-81
2024/02/28 10:02:50;;;;;;;37.40;22.83;;;6.00;99.90;;;;;;5045305;28;20025;-81
2024/02/28 10:05:20;;;;;;;40.67;25.50;;;6.00;99.90;;;;;;5043813;28;20088;-81
2024/02/28 10:07:47;;;;;;;44.23;24.23;;;6.10;99.90;;;;;;5025626;28;20036;-81
2024/02/28 10:10:13;;;;;;;38.80;23.80;;;6.10;99.90;;;;;;5038353;28;20478;-81
2024/02/28 10:12:44;;;;;;;41.13;24.50;;;6.20;99.90;;;;;;5046617;28;20036;-81
2024/02/28 10:15:11;;;;;;;40.53;24.23;;;6.30;99.90;;;;;;5041576;28;20022;-81
2024/02/28 10:17:36;;;;;;;38.73;24.07;;;6.40;99.90;;;;;;5054046;28;20031;-81
2024/02/28 10:20:04;;;;;;;38.20;22.67;;;6.50;99.90;;;;;;5044732;28;20029;-81
2024/02/28 10:22:36;;;;;;;44.80;26.23;;;6.60;99.90;;;;;;5043017;28;20385;-80
2024/02/28 10:25:03;;;;;;;42.20;25.70;;;6.60;99.90;;;;;;5044821;28;20037;-80
2024/02/28 10:27:33;;;;;;;39.30;25.00;;;6.70;99.90;;;;;;5044300;28;20465;-80
2024/02/28 10:29:58;;;;;;;39.60;24.83;;;6.70;99.90;;;;;;5043499;28;20056;-80
2024/02/28 10:32:24;;;;;;;43.20;26.80;;;6.80;99.90;;;;;;5044263;28;20021;-81
2024/02/28 10:34:50;;;;;;;39.47;25.77;;;6.80;99.90;;;;;;5043646;28;20024;-80
2024/02/28 10:37:17;;;;;;;44.30;25.27;;;6.90;99.90;;;;;;5044745;28;20017;-80
2024/02/28 10:39:44;;;;;;;39.97;25.37;;;6.90;99.90;;;;;;5043465;28;20017;-81
2024/02/28 10:42:11;;;;;;;37.67;23.47;;;6.90;99.90;;;;;;5044572;28;20024;-81
2024/02/28 10:44:38;;;;;;;41.67;24.17;;;6.90;99.90;;;;;;5044047;28;20117;-81
2024/02/28 10:47:07;;;;;;;43.07;27.30;;;6.90;99.90;;;;;;5043626;28;20021;-80
2024/02/28 10:49:33;;;;;;;41.10;26.03;;;7.00;99.90;;;;;;5044676;28;20017;-80
2024/02/28 10:51:59;;;;;;;42.20;25.87;;;7.00;99.90;;;;;;5043109;28;20021;-81
2024/02/28 10:54:28;;;;;;;39.03;23.23;;;7.10;99.90;;;;;;5044586;28;20067;-81
2024/02/28 10:56:54;;;;;;;35.27;22.53;;;7.10;99.90;;;;;;5060850;28;20032;-81
2024/02/28 10:59:23;;;;;;;39.13;24.30;;;7.20;99.90;;;;;;5043986;28;20318;-81
2024/02/28 11:01:49;;;;;;;38.93;23.63;;;7.20;99.90;;;;;;5061873;28;20028;-81
2024/02/28 11:04:17;;;;;;;40.00;23.57;;;7.20;99.90;;;;;;5042959;28;20017;-81
2024/02/28 11:06:55;;;;;;;38.67;24.63;;;7.30;99.90;;;;;;5044106;28;20037;-81
2024/02/28 11:09:28;;;;;;;33.07;22.50;;;7.30;99.90;;;;;;5042545;28;20112;-81
2024/02/28 11:11:55;;;;;;;38.77;25.03;;;7.30;99.90;;;;;;5044037;28;20411;-81
2024/02/28 11:14:26;;;;;;;40.13;25.40;;;7.40;99.90;;;;;;5041443;28;20355;-81
2024/02/28 11:17:05;;;;;;;34.37;23.33;;;7.40;99.90;;;;;;5042535;28;20032;-80
2024/02/28 11:19:32;;;;;;;38.63;23.87;;;7.40;99.90;;;;;;5040976;28;20024;-80
2024/02/28 11:21:59;;;;;;;40.47;26.30;;;7.50;99.90;;;;;;5042121;28;20043;-80
2024/02/28 11:24:30;;;;;;;35.33;22.47;;;7.50;99.90;;;;;;5043265;28;20040;-81
2024/02/28 11:26:56;;;;;;;37.07;23.17;;;7.60;99.90;;;;;;5041808;28;20116;-79
2024/02/28 11:29:28;;;;;;;35.57;22.07;;;7.70;99.90;;;;;;5043706;28;20021;-80
2024/02/28 11:31:54;;;;;;;34.40;22.03;;;7.70;99.90;;;;;;5042855;28;20051;-80
2024/02/28 11:34:20;;;;;;;36.30;22.73;;;7.80;99.90;;;;;;5040947;28;20032;-80
2024/02/28 11:36:50;;;;;;;37.53;22.37;;;7.90;99.90;;;;;;5043953;28;20025;-81
2024/02/28 11:39:21;;;;;;;31.97;21.13;;;8.00;99.90;;;;;;5042442;28;20559;-80
2024/02/28 11:41:47;;;;;;;35.87;22.40;;;8.00;99.90;;;;;;5043764;28;20017;-81
2024/02/28 11:44:16;;;;;;;36.80;23.60;;;8.10;99.90;;;;;;5042594;28;20060;-80
2024/02/28 11:46:46;;;;;;;39.60;23.73;;;8.20;99.90;;;;;;5060965;28;20052;-81
2024/02/28 11:49:15;;;;;;;36.50;23.43;;;8.20;99.90;;;;;;5043127;28;20033;-80
2024/02/28 11:51:42;;;;;;;40.00;24.63;;;8.20;99.90;;;;;;5042359;28;20017;-81
2024/02/28 11:54:10;;;;;;;38.03;23.47;;;8.30;99.90;;;;;;5040829;28;20048;-81
2024/02/28 11:56:39;;;;;;;38.80;24.97;;;8.40;99.90;;;;;;5035898;28;20032;-81
2024/02/28 11:59:05;;;;;;;38.07;25.43;;;8.50;99.90;;;;;;5034767;28;20033;-82
2024/02/28 12:01:36;;;;;;;42.53;26.97;;;8.60;99.90;;;;;;5040379;28;20138;-82
2024/02/28 12:04:04;;;;;;;40.07;25.53;;;8.70;99.90;;;;;;5034798;28;20108;-81
2024/02/28 12:06:30;;;;;;;39.33;23.13;;;8.90;99.90;;;;;;5042850;28;20052;-80
2024/02/28 12:08:56;;;;;;;37.77;24.37;;;9.00;99.90;;;;;;5041337;28;20021;-81
2024/02/28 12:11:24;;;;;;;37.50;24.30;;;9.00;99.90;;;;;;5042619;28;20013;-82
2024/02/28 12:13:53;;;;;;;35.53;24.03;;;9.10;99.90;;;;;;5041439;28;20033;-81
2024/02/28 12:16:25;;;;;;;32.50;22.63;;;9.20;99.90;;;;;;5042886;28;20032;-80
2024/02/28 12:18:54;;;;;;;33.13;22.73;;;9.20;99.90;;;;;;5031469;28;20023;-83
2024/02/28 12:21:20;;;;;;;33.67;21.73;;;9.20;99.90;;;;;;5033902;28;20025;-83
2024/02/28 12:23:48;;;;;;;34.60;21.90;;;9.20;99.90;;;;;;5038966;28;20113;-82
2024/02/28 12:26:14;;;;;;;29.93;20.47;;;9.20;99.90;;;;;;5020855;28;20025;-82
2024/02/28 12:28:39;;;;;;;33.00;21.37;;;9.20;99.90;;;;;;5059342;28;20028;-81
2024/02/28 12:31:08;;;;;;;33.50;20.63;;;9.20;99.90;;;;;;5040933;28;20477;-81